KCMX/CMX METAR and TAF weather

Enter ICAO airport designator
Station Type Date Time Source
KCMX METAR 2018/12/10 19:53 UTC NOAA

KCMX 101953Z AUTO 21003KT 10SM CLR M02/M09 A2988 RMK AO2 SLP133 T10221089


Station Type Date Time Source
KCMX Decoded METAR 2018/12/10 19:53 UTC NOAA

HANCOCK HOUGHTON CTY. MEMO, MI, United States (KCMX) 47-10N 088-29W 326M
Dec 10, 2018 - 02:53 PM EST / 2018.12.10 1953 UTC
Wind: from the SSW (210 degrees) at 3 MPH (3 KT):0
Visibility: 10 mile(s):0
Sky conditions: clear
Temperature: 28.0 F (-2.2 C)
Dew Point: 16.0 F (-8.9 C)
Relative Humidity: 60%
Pressure (altimeter): 29.88 in. Hg (1011 hPa)
ob: KCMX 101953Z AUTO 21003KT 10SM CLR M02/M09 A2988 RMK AO2 SLP133 T10221089
cycle: 20

Station Type Date Time Source
KCMX TAF 2018/12/10 18:42 UTC NOAA

TAF KCMX 101739Z 1018/1118 24009G17KT P6SM BKN150
FM102300 23005KT P6SM BKN080
FM110200 29009KT P6SM BKN035
FM110900 32006KT P6SM OVC015


Example: see airport list